Startpagina
METAR-TAF:

METAR-TAF

Vliegvelden :

Bhavnagar, India

breedte: 21-45-08N, lengte: 72-11-07E, hoogte: 6 m

Actueel weer

Dit bericht is 15 uur en het 14 minuten geleden gemaakt, om 15:00 UTC
Wind 5 kt uit het noorden
Temperatuur 22°C
Vochtigheid 53%
Druk 1018 hPa
Zicht: 4000 m
rook

METAR: VABV 131500Z 35005KT 4000 FU NSC 22/12 Q1018

Tijdstip: 11:44 (06:14 UTC)


TAF: ontbreekt

Waarnemingen en weersverwachtingen van meer dan 4000 vliegvelden (METAR en TAF).

De beschikbare stations zijn de gele en rode punten op de kaart.

Ga met uw muis naar het station om de naam te zien.

Klik dan om waarnemingen en weersverwachtingen te zien.

kaart wijzigen: klik op de groene knoppen met een zwart kruis om in te zoomen, op de groene knop met een streepje om uit te zoomen of op de groene pijlen voor aangrenzende kaarten.


METAR-TAF: